createdAt,value
2022-12-14T00:02:02.426Z,-3.94
2022-12-14T00:04:28.938Z,-4.01
2022-12-14T00:06:55.323Z,-4.04
2022-12-14T00:09:21.700Z,-4.00
2022-12-14T00:11:48.075Z,-4.03
2022-12-14T00:14:14.493Z,-4.00
2022-12-14T00:16:40.932Z,-3.96
2022-12-14T00:19:07.376Z,-3.92
2022-12-14T00:21:33.767Z,-4.02
2022-12-14T00:24:00.532Z,-3.98
2022-12-14T00:26:31.267Z,-3.91
2022-12-14T00:28:58.391Z,-3.85
2022-12-14T00:31:25.314Z,-3.86
2022-12-14T00:33:52.352Z,-3.92
2022-12-14T00:36:19.122Z,-3.95
2022-12-14T00:38:45.615Z,-3.98
2022-12-14T00:41:12.600Z,-4.03
2022-12-14T00:43:39.126Z,-4.00
2022-12-14T00:46:06.211Z,-3.98
2022-12-14T00:48:33.265Z,-3.99
2022-12-14T00:50:59.799Z,-3.99
2022-12-14T00:53:26.202Z,-3.98
2022-12-14T00:55:52.904Z,-3.98
2022-12-14T00:58:20.219Z,-3.92
2022-12-14T01:00:47.311Z,-3.88
2022-12-14T01:03:13.936Z,-3.89
2022-12-14T01:05:41.337Z,-3.99
2022-12-14T01:08:07.757Z,-4.02
2022-12-14T01:10:34.156Z,-4.00
2022-12-14T01:13:00.687Z,-3.94
2022-12-14T01:15:27.276Z,-3.91
2022-12-14T01:17:53.698Z,-3.90
2022-12-14T01:20:20.099Z,-3.91
2022-12-14T01:22:46.597Z,-3.90
2022-12-14T01:25:12.969Z,-3.91
2022-12-14T01:27:39.395Z,-3.91
2022-12-14T01:30:06.028Z,-3.89
2022-12-14T01:32:34.151Z,-3.86
2022-12-14T01:35:00.597Z,-3.85
2022-12-14T01:37:26.971Z,-3.85
2022-12-14T01:39:53.350Z,-3.91
2022-12-14T01:42:19.717Z,-4.02
2022-12-14T01:44:50.120Z,-4.19
2022-12-14T01:47:33.234Z,-4.27
2022-12-14T01:49:59.697Z,-4.24
2022-12-14T01:52:34.982Z,-4.15
2022-12-14T01:55:10.448Z,-4.10
2022-12-14T01:57:57.098Z,-4.08
2022-12-14T02:00:24.568Z,-4.13
2022-12-14T02:03:00.546Z,-4.24
2022-12-14T02:05:27.479Z,-4.41
2022-12-14T02:07:55.626Z,-4.40
2022-12-14T02:10:24.119Z,-4.33
2022-12-14T02:12:53.648Z,-4.25
2022-12-14T02:15:20.230Z,-4.24
2022-12-14T02:17:47.272Z,-4.26
2022-12-14T02:20:14.788Z,-4.24
2022-12-14T02:22:43.927Z,-4.23
2022-12-14T02:25:29.184Z,-4.20
2022-12-14T02:27:55.573Z,-4.16
2022-12-14T02:30:23.006Z,-4.10
2022-12-14T02:32:56.639Z,-4.08
2022-12-14T02:35:44.186Z,-4.13
2022-12-14T02:38:49.244Z,-4.21
2022-12-14T02:41:38.404Z,-4.27
2022-12-14T02:44:34.340Z,-4.30
2022-12-14T02:47:12.341Z,-4.34
2022-12-14T02:49:57.641Z,-4.35
2022-12-14T02:52:30.131Z,-4.32
2022-12-14T02:55:01.492Z,-4.39
2022-12-14T02:57:32.113Z,-4.41
2022-12-14T03:00:00.971Z,-4.38
2022-12-14T03:02:28.009Z,-4.35
2022-12-14T03:04:54.758Z,-4.36
2022-12-14T03:07:24.312Z,-4.34
2022-12-14T03:09:52.090Z,-4.45
2022-12-14T03:12:20.607Z,-4.51
2022-12-14T03:14:50.664Z,-4.51
2022-12-14T03:17:19.846Z,-4.51
2022-12-14T03:19:50.208Z,-4.50
2022-12-14T03:22:36.842Z,-4.57
2022-12-14T03:25:08.786Z,-4.57
2022-12-14T03:27:38.475Z,-4.70
2022-12-14T03:30:12.524Z,-4.69
2022-12-14T03:32:48.414Z,-4.71
2022-12-14T03:35:28.680Z,-4.71
2022-12-14T03:38:00.873Z,-4.73
2022-12-14T03:40:34.324Z,-4.70
2022-12-14T03:43:25.235Z,-4.67
2022-12-14T03:45:51.904Z,-4.73
2022-12-14T03:48:35.578Z,-4.76
2022-12-14T03:51:06.541Z,-4.83
2022-12-14T03:53:38.461Z,-4.87
2022-12-14T03:56:18.302Z,-4.93
2022-12-14T03:59:09.780Z,-4.97
2022-12-14T04:01:44.170Z,-5.04
2022-12-14T04:04:15.785Z,-5.09
2022-12-14T04:06:46.497Z,-5.11
2022-12-14T04:09:23.398Z,-5.08
2022-12-14T04:12:12.724Z,-5.05
2022-12-14T04:15:07.719Z,-5.02
2022-12-14T04:17:55.192Z,-5.01
2022-12-14T04:20:28.057Z,-5.00
2022-12-14T04:22:59.222Z,-5.01
2022-12-14T04:25:51.982Z,-5.03
2022-12-14T04:28:40.381Z,-5.06
2022-12-14T04:31:11.579Z,-5.02
2022-12-14T04:33:49.120Z,-5.02
2022-12-14T04:36:19.176Z,-5.08
2022-12-14T04:38:48.290Z,-5.13
2022-12-14T04:41:17.657Z,-5.20
2022-12-14T04:43:49.114Z,-5.26
2022-12-14T04:46:18.106Z,-5.33
2022-12-14T04:48:54.199Z,-5.43
2022-12-14T04:51:20.967Z,-5.49
2022-12-14T04:53:49.970Z,-5.50
2022-12-14T04:56:20.237Z,-5.57
2022-12-14T04:58:46.748Z,-5.56
2022-12-14T05:01:31.733Z,-5.53
2022-12-14T05:04:12.463Z,-5.54
2022-12-14T05:06:48.334Z,-5.57
2022-12-14T05:09:41.147Z,-5.59
2022-12-14T05:12:10.733Z,-5.61
2022-12-14T05:14:44.080Z,-5.66
2022-12-14T05:17:10.944Z,-5.66
2022-12-14T05:19:37.688Z,-5.62
2022-12-14T05:22:08.074Z,-5.68
2022-12-14T05:24:34.542Z,-5.74
2022-12-14T05:27:01.024Z,-5.74
2022-12-14T05:29:27.462Z,-5.74
2022-12-14T05:31:53.969Z,-5.80
2022-12-14T05:34:20.357Z,-5.91
2022-12-14T05:36:46.756Z,-6.00
2022-12-14T05:39:14.028Z,-6.04
2022-12-14T05:41:40.422Z,-6.08
2022-12-14T05:44:06.835Z,-6.07
2022-12-14T05:46:33.345Z,-6.06
2022-12-14T05:48:59.712Z,-6.09
2022-12-14T05:51:26.153Z,-6.10
2022-12-14T05:53:52.590Z,-6.14
2022-12-14T05:56:19.058Z,-6.18
2022-12-14T05:58:49.492Z,-6.22
2022-12-14T06:01:19.339Z,-6.22
2022-12-14T06:03:46.314Z,-6.22
2022-12-14T06:06:13.294Z,-6.19
2022-12-14T06:08:41.054Z,-6.16
2022-12-14T06:11:08.629Z,-6.18
2022-12-14T06:13:35.995Z,-6.20
2022-12-14T06:16:09.435Z,-6.17
2022-12-14T06:18:36.211Z,-6.10
2022-12-14T06:21:03.181Z,-6.10
2022-12-14T06:23:29.927Z,-6.10
2022-12-14T06:25:56.783Z,-6.13
2022-12-14T06:28:23.757Z,-6.09
2022-12-14T06:30:50.188Z,-6.04
2022-12-14T06:33:16.684Z,-6.03
2022-12-14T06:35:44.922Z,-6.01
2022-12-14T06:38:11.698Z,-6.01
2022-12-14T06:40:38.113Z,-5.99
2022-12-14T06:43:04.489Z,-6.03
2022-12-14T06:45:31.025Z,-5.99
2022-12-14T06:47:58.439Z,-5.97
2022-12-14T06:50:25.250Z,-5.96
2022-12-14T06:52:51.935Z,-5.97
2022-12-14T06:55:18.557Z,-5.96
2022-12-14T06:57:44.887Z,-5.98
2022-12-14T07:00:14.527Z,-5.92
2022-12-14T07:02:41.061Z,-5.86
2022-12-14T07:05:07.548Z,-5.92
2022-12-14T07:07:34.104Z,-5.88
2022-12-14T07:10:00.679Z,-5.89
2022-12-14T07:12:28.077Z,-5.89
2022-12-14T07:14:54.923Z,-5.94
2022-12-14T07:17:21.874Z,-5.89
2022-12-14T07:19:48.962Z,-5.89
2022-12-14T07:22:15.628Z,-5.88
2022-12-14T07:24:42.018Z,-5.87
2022-12-14T07:27:08.382Z,-5.84
2022-12-14T07:29:35.175Z,-5.82
2022-12-14T07:32:01.651Z,-5.81
2022-12-14T07:34:28.233Z,-5.77
2022-12-14T07:36:55.915Z,-5.77
2022-12-14T07:39:22.505Z,-5.74
2022-12-14T07:41:50.613Z,-5.75
2022-12-14T07:44:17.431Z,-5.68
2022-12-14T07:46:43.951Z,-5.65
2022-12-14T07:49:10.697Z,-5.63
2022-12-14T07:51:38.042Z,-5.57
2022-12-14T07:54:05.581Z,-5.52
2022-12-14T07:56:34.393Z,-5.48
2022-12-14T07:59:01.633Z,-5.47
2022-12-14T08:01:37.384Z,-5.42
2022-12-14T08:04:05.611Z,-5.41
2022-12-14T08:06:32.602Z,-5.41
2022-12-14T08:08:59.047Z,-5.36
2022-12-14T08:11:25.609Z,-5.32
2022-12-14T08:13:59.313Z,-5.29
2022-12-14T08:16:26.257Z,-5.25
2022-12-14T08:18:53.486Z,-5.23
2022-12-14T08:21:22.159Z,-5.21
2022-12-14T08:23:49.204Z,-5.17
2022-12-14T08:26:15.742Z,-5.11
2022-12-14T08:28:42.214Z,-5.10
2022-12-14T08:31:10.269Z,-5.11
2022-12-14T08:33:37.589Z,-5.10
2022-12-14T08:36:04.740Z,-5.08
2022-12-14T08:38:31.302Z,-5.10
2022-12-14T08:41:01.451Z,-5.13
2022-12-14T08:43:28.199Z,-5.09
2022-12-14T08:45:55.531Z,-5.04
2022-12-14T08:48:21.928Z,-5.02
2022-12-14T08:50:50.026Z,-5.00
2022-12-14T08:53:16.927Z,-4.99
2022-12-14T08:55:43.665Z,-4.93
2022-12-14T08:58:10.469Z,-4.93
2022-12-14T09:00:38.754Z,-4.87
2022-12-14T09:03:05.673Z,-4.87
2022-12-14T09:05:32.282Z,-4.79
2022-12-14T09:07:58.710Z,-4.75
2022-12-14T09:10:25.164Z,-4.81
2022-12-14T09:12:51.600Z,-4.81
2022-12-14T09:15:18.031Z,-4.80
2022-12-14T09:17:44.402Z,-4.78
2022-12-14T09:20:12.946Z,-4.77
2022-12-14T09:22:40.139Z,-4.79
2022-12-14T09:25:06.762Z,-4.80
2022-12-14T09:27:33.684Z,-4.77
2022-12-14T09:30:00.084Z,-4.75
2022-12-14T09:32:28.549Z,-4.74
2022-12-14T09:34:54.991Z,-4.69
2022-12-14T09:37:21.388Z,-4.61
2022-12-14T09:39:47.890Z,-4.49
2022-12-14T09:42:21.214Z,-4.44
2022-12-14T09:45:06.929Z,-4.47
2022-12-14T09:47:45.200Z,-4.38
2022-12-14T09:50:17.107Z,-4.29
2022-12-14T09:52:48.782Z,-4.27
2022-12-14T09:55:18.228Z,-4.18
2022-12-14T09:57:45.804Z,-4.11
2022-12-14T10:00:18.993Z,-4.06
2022-12-14T10:03:06.850Z,-4.00
2022-12-14T10:05:59.123Z,-4.02
2022-12-14T10:08:32.235Z,-3.93
2022-12-14T10:11:18.377Z,-3.90
2022-12-14T10:13:55.617Z,-3.81
2022-12-14T10:16:35.198Z,-3.74
2022-12-14T10:19:11.565Z,-3.67
2022-12-14T10:21:51.141Z,-3.61
2022-12-14T10:24:24.197Z,-3.54
2022-12-14T10:26:51.811Z,-3.51
2022-12-14T10:29:31.251Z,-3.51
2022-12-14T10:32:03.528Z,-3.51
2022-12-14T10:34:30.990Z,-3.45
2022-12-14T10:37:15.720Z,-3.38
2022-12-14T10:40:03.530Z,-3.36
2022-12-14T10:42:36.892Z,-3.31
2022-12-14T10:48:12.039Z,-3.29
2022-12-14T10:51:04.784Z,-3.24
2022-12-14T10:53:40.314Z,-3.22
2022-12-14T10:56:11.478Z,-3.16
2022-12-14T10:58:37.884Z,-3.18
2022-12-14T11:01:04.349Z,-3.21
2022-12-14T11:03:30.977Z,-3.13
2022-12-14T11:06:04.650Z,-3.03
2022-12-14T11:08:39.438Z,-3.09
2022-12-14T11:11:15.521Z,-3.15
2022-12-14T11:14:08.139Z,-3.08
2022-12-14T11:16:37.395Z,-3.10
2022-12-14T11:19:04.940Z,-3.05
2022-12-14T11:21:36.803Z,-3.02
2022-12-14T11:24:04.379Z,-2.98
2022-12-14T11:26:36.681Z,-2.92
2022-12-14T11:29:05.835Z,-2.87
2022-12-14T11:31:35.819Z,-2.81
2022-12-14T11:34:03.638Z,-2.83
2022-12-14T11:36:30.090Z,-2.86
2022-12-14T11:39:12.899Z,-2.81
2022-12-14T11:41:41.000Z,-2.77
2022-12-14T11:44:16.251Z,-2.75
2022-12-14T11:46:51.966Z,-2.80
2022-12-14T11:49:23.646Z,-2.80
2022-12-14T11:51:59.158Z,-2.82
2022-12-14T11:54:25.670Z,-2.87
2022-12-14T11:56:56.036Z,-2.92
2022-12-14T11:59:23.416Z,-2.90
2022-12-14T12:01:50.001Z,-3.01
2022-12-14T12:04:17.066Z,-2.95
2022-12-14T12:06:43.551Z,-3.04
2022-12-14T12:09:36.383Z,-3.02
2022-12-14T12:12:03.620Z,-3.01
2022-12-14T12:14:33.683Z,-3.00
2022-12-14T12:17:00.101Z,-2.94
2022-12-14T12:19:30.639Z,-2.86
2022-12-14T12:22:00.278Z,-2.94
2022-12-14T12:24:28.737Z,-2.90
2022-12-14T12:27:00.218Z,-2.82
2022-12-14T12:29:30.171Z,-2.80
2022-12-14T12:32:15.531Z,-2.74
2022-12-14T12:34:47.435Z,-2.67
2022-12-14T12:37:31.275Z,-2.67
2022-12-14T12:40:02.115Z,-2.60
2022-12-14T12:42:40.357Z,-2.61
2022-12-14T12:45:16.514Z,-2.64
2022-12-14T12:47:54.877Z,-2.69
2022-12-14T12:50:26.760Z,-2.63
2022-12-14T12:53:03.716Z,-2.73
2022-12-14T12:55:31.767Z,-2.79
2022-12-14T12:57:59.140Z,-2.78
2022-12-14T13:00:27.036Z,-2.73
2022-12-14T13:02:56.654Z,-2.67
2022-12-14T13:08:19.631Z,-2.76
2022-12-14T13:11:17.341Z,-2.75
2022-12-14T13:13:35.488Z,-2.71
2022-12-14T13:16:11.635Z,-2.67
2022-12-14T13:18:59.533Z,-2.59
2022-12-14T13:21:30.265Z,-2.54
2022-12-14T13:23:56.855Z,-2.58
2022-12-14T13:26:56.745Z,-2.55
2022-12-14T13:29:19.308Z,-2.53
2022-12-14T13:31:51.995Z,-2.50
2022-12-14T13:34:31.910Z,-2.45
2022-12-14T13:37:10.950Z,-2.42
2022-12-14T13:39:40.697Z,-2.41
2022-12-14T13:42:18.646Z,-2.41
2022-12-14T13:44:58.969Z,-2.40
2022-12-14T13:47:28.681Z,-2.51
2022-12-14T13:50:35.535Z,-2.57
2022-12-14T13:52:46.308Z,-2.54
2022-12-14T13:55:22.046Z,-2.49
2022-12-14T13:57:48.489Z,-2.47
2022-12-14T14:00:34.713Z,-2.47
2022-12-14T14:03:01.231Z,-2.46
2022-12-14T14:05:37.577Z,-2.47
2022-12-14T14:08:29.886Z,-2.44
2022-12-14T14:11:35.405Z,-2.42
2022-12-14T14:13:45.473Z,-2.40
2022-12-14T14:16:42.621Z,-2.45
2022-12-14T14:19:08.992Z,-2.51
2022-12-14T14:22:06.044Z,-2.66
2022-12-14T14:24:29.474Z,-2.70
2022-12-14T14:27:00.815Z,-2.69
2022-12-14T14:29:28.850Z,-2.69
2022-12-14T14:32:02.575Z,-2.67
2022-12-14T14:34:44.732Z,-2.65
2022-12-14T14:37:34.329Z,-2.58
2022-12-14T14:40:16.664Z,-2.54
2022-12-14T14:42:51.579Z,-2.54
2022-12-14T14:45:41.403Z,-2.56
2022-12-14T14:48:19.660Z,-2.53
2022-12-14T14:50:48.729Z,-2.61
2022-12-14T14:53:18.372Z,-2.62
2022-12-14T14:55:54.285Z,-2.65
2022-12-14T14:58:22.433Z,-2.77
2022-12-14T15:00:58.119Z,-2.71
2022-12-14T15:03:35.319Z,-2.70
2022-12-14T15:06:01.748Z,-2.64
2022-12-14T15:08:32.816Z,-2.64
2022-12-14T15:11:03.046Z,-2.71
2022-12-14T15:13:33.736Z,-2.72
2022-12-14T15:16:00.456Z,-2.71
2022-12-14T15:18:33.008Z,-2.70
2022-12-14T15:21:02.495Z,-2.64
2022-12-14T15:23:33.338Z,-2.58
2022-12-14T15:26:01.651Z,-2.56
2022-12-14T15:28:28.968Z,-2.55
2022-12-14T15:30:57.114Z,-2.49
2022-12-14T15:33:33.348Z,-2.45
2022-12-14T15:36:08.357Z,-2.42
2022-12-14T15:38:37.445Z,-2.51
2022-12-14T15:41:15.735Z,-2.50
2022-12-14T15:43:46.240Z,-2.51
2022-12-14T15:46:19.756Z,-2.52
2022-12-14T15:48:46.192Z,-2.43
2022-12-14T15:51:18.010Z,-2.40
2022-12-14T15:53:51.505Z,-2.50
2022-12-14T15:56:27.938Z,-2.51
2022-12-14T15:58:55.500Z,-2.54
2022-12-14T16:01:23.715Z,-2.56
2022-12-14T16:03:52.032Z,-2.53
2022-12-14T16:06:19.094Z,-2.49
2022-12-14T16:08:52.992Z,-2.57
2022-12-14T16:11:23.117Z,-2.73
2022-12-14T16:13:49.873Z,-2.74
2022-12-14T16:16:16.683Z,-2.72
2022-12-14T16:18:46.178Z,-2.68
2022-12-14T16:21:29.055Z,-2.88
2022-12-14T16:23:56.532Z,-2.91
2022-12-14T16:26:28.731Z,-2.79
2022-12-14T16:29:09.006Z,-2.73
2022-12-14T16:31:36.051Z,-2.73
2022-12-14T16:34:07.686Z,-2.76
2022-12-14T16:36:35.637Z,-2.87
2022-12-14T16:39:02.262Z,-2.92
2022-12-14T16:41:39.013Z,-2.88
2022-12-14T16:44:09.842Z,-2.87
2022-12-14T16:46:36.473Z,-2.95
2022-12-14T16:49:32.718Z,-2.92
2022-12-14T16:52:08.263Z,-2.90
2022-12-14T16:54:35.643Z,-3.03
2022-12-14T16:57:12.904Z,-3.07
2022-12-14T16:59:43.436Z,-3.01
2022-12-14T17:02:30.658Z,-3.04
2022-12-14T17:04:58.581Z,-3.03
2022-12-14T17:07:27.174Z,-2.99
2022-12-14T17:09:56.343Z,-2.99
2022-12-14T17:12:24.100Z,-3.00
2022-12-14T17:14:50.685Z,-2.92
2022-12-14T17:17:22.350Z,-2.90
2022-12-14T17:19:48.928Z,-2.81
2022-12-14T17:22:18.607Z,-2.77
2022-12-14T17:24:45.045Z,-2.74
2022-12-14T17:27:17.642Z,-2.71
2022-12-14T17:29:44.191Z,-2.74
2022-12-14T17:32:11.816Z,-2.71
2022-12-14T17:34:38.300Z,-2.77
2022-12-14T17:37:12.961Z,-2.77
2022-12-14T17:39:39.351Z,-2.80
2022-12-14T17:42:05.828Z,-2.80
2022-12-14T17:44:32.636Z,-2.72
2022-12-14T17:46:59.030Z,-2.68
2022-12-14T17:49:34.505Z,-2.71
2022-12-14T17:52:04.880Z,-2.81
2022-12-14T17:54:31.559Z,-2.77
2022-12-14T17:56:58.072Z,-2.76
2022-12-14T17:59:24.517Z,-2.83
2022-12-14T18:01:51.051Z,-2.75
2022-12-14T18:04:17.600Z,-2.71
2022-12-14T18:06:44.553Z,-2.75
2022-12-14T18:09:10.991Z,-2.72
2022-12-14T18:11:45.173Z,-2.71
2022-12-14T18:14:23.766Z,-2.72
2022-12-14T18:16:50.179Z,-2.67
2022-12-14T18:19:16.576Z,-2.62
2022-12-14T18:21:43.092Z,-2.55
2022-12-14T18:24:12.984Z,-2.54
2022-12-14T18:26:40.795Z,-2.51
2022-12-14T18:29:07.659Z,-2.47
2022-12-14T18:31:36.497Z,-2.39
2022-12-14T18:34:03.602Z,-2.36
2022-12-14T18:36:30.084Z,-2.34
2022-12-14T18:38:57.073Z,-2.31
2022-12-14T18:41:24.274Z,-2.33
2022-12-14T18:43:51.226Z,-2.29
2022-12-14T18:46:17.728Z,-2.25
2022-12-14T18:48:45.003Z,-2.25
2022-12-14T18:51:15.334Z,-2.25
2022-12-14T18:53:42.707Z,-2.29
2022-12-14T18:56:10.078Z,-2.36
2022-12-14T18:58:36.621Z,-2.36
2022-12-14T19:01:03.138Z,-2.38
2022-12-14T19:03:31.736Z,-2.36
2022-12-14T19:06:34.788Z,-2.28
2022-12-14T19:08:52.451Z,-2.24
2022-12-14T19:11:39.079Z,-2.29
2022-12-14T19:14:05.871Z,-2.31
2022-12-14T19:16:32.679Z,-2.33
2022-12-14T19:19:00.863Z,-2.36
2022-12-14T19:21:29.365Z,-2.35
2022-12-14T19:23:55.929Z,-2.39
2022-12-14T19:26:22.349Z,-2.39
2022-12-14T19:28:48.860Z,-2.36
2022-12-14T19:31:15.352Z,-2.29
2022-12-14T19:33:41.804Z,-2.28
2022-12-14T19:36:08.589Z,-2.25
2022-12-14T19:38:35.716Z,-2.26
2022-12-14T19:41:07.003Z,-2.21
2022-12-14T19:43:34.423Z,-2.21
2022-12-14T19:46:04.993Z,-2.26
2022-12-14T19:48:31.449Z,-2.19
2022-12-14T19:50:58.023Z,-2.12
2022-12-14T19:53:24.467Z,-2.09
2022-12-14T19:55:52.759Z,-2.10
2022-12-14T19:58:22.080Z,-2.04
2022-12-14T20:00:49.656Z,-2.00
2022-12-14T20:03:16.156Z,-1.99
2022-12-14T20:05:48.887Z,-1.93
2022-12-14T20:08:15.285Z,-1.86
2022-12-14T20:10:41.682Z,-1.86
2022-12-14T20:13:08.059Z,-1.86
2022-12-14T20:15:34.500Z,-1.81
2022-12-14T20:18:01.218Z,-1.81
2022-12-14T20:20:29.341Z,-1.80
2022-12-14T20:22:55.726Z,-1.74
2022-12-14T20:25:22.169Z,-1.71
2022-12-14T20:27:48.621Z,-1.67
2022-12-14T20:30:15.017Z,-1.63
2022-12-14T20:32:41.445Z,-1.55
2022-12-14T20:35:08.136Z,-1.53
2022-12-14T20:37:34.544Z,-1.47
2022-12-14T20:40:00.924Z,-1.40
2022-12-14T20:42:27.301Z,-1.37
2022-12-14T20:44:53.691Z,-1.35
2022-12-14T20:47:20.188Z,-1.37
2022-12-14T20:49:46.678Z,-1.34
2022-12-14T20:52:13.063Z,-1.29
2022-12-14T20:54:39.478Z,-1.25
2022-12-14T20:57:06.402Z,-1.31
2022-12-14T20:59:32.829Z,-1.23
2022-12-14T21:01:59.317Z,-1.27
2022-12-14T21:04:26.233Z,-1.28
2022-12-14T21:06:52.735Z,-1.25
2022-12-14T21:09:19.153Z,-1.26
2022-12-14T21:12:05.937Z,-1.23
2022-12-14T21:14:34.148Z,-1.23
2022-12-14T21:17:01.484Z,-1.22
2022-12-14T21:19:28.050Z,-1.18
2022-12-14T21:21:54.473Z,-1.20
2022-12-14T21:24:52.724Z,-1.15
2022-12-14T21:27:08.720Z,-1.19
2022-12-14T21:29:35.164Z,-1.13
2022-12-14T21:32:01.602Z,-1.15
2022-12-14T21:34:28.239Z,-1.11
2022-12-14T21:36:54.633Z,-1.10
2022-12-14T21:39:21.084Z,-1.13
2022-12-14T21:42:06.168Z,-1.11
2022-12-14T21:44:34.921Z,-1.09
2022-12-14T21:47:01.535Z,-1.05
2022-12-14T21:49:27.995Z,-1.09
2022-12-14T21:51:55.094Z,-1.07
2022-12-14T21:54:21.518Z,-1.06
2022-12-14T21:57:06.614Z,-1.04
2022-12-14T21:59:36.571Z,-1.00
2022-12-14T22:02:05.244Z,-1.01
2022-12-14T22:04:36.372Z,-1.00
2022-12-14T22:07:06.480Z,-1.00
2022-12-14T22:09:32.856Z,-1.02
2022-12-14T22:11:59.244Z,-1.07
2022-12-14T22:14:25.741Z,-1.12
2022-12-14T22:16:52.535Z,-1.13
2022-12-14T22:19:20.407Z,-1.12
2022-12-14T22:21:47.054Z,-1.06
2022-12-14T22:24:15.591Z,-0.99
2022-12-14T22:26:42.357Z,-0.93
2022-12-14T22:29:09.446Z,-0.90
2022-12-14T22:31:36.580Z,-0.89
2022-12-14T22:34:03.615Z,-0.86
2022-12-14T22:36:30.259Z,-0.84
2022-12-14T22:38:57.686Z,-0.81
2022-12-14T22:41:24.238Z,-0.76
2022-12-14T22:43:54.690Z,-0.72
2022-12-14T22:46:21.110Z,-0.67
2022-12-14T22:48:47.642Z,-0.63
2022-12-14T22:51:15.123Z,-0.61
2022-12-14T22:53:42.268Z,-0.61
2022-12-14T22:56:08.833Z,-0.70
2022-12-14T22:58:36.384Z,-0.66
2022-12-14T23:01:02.779Z,-0.68
2022-12-14T23:03:29.951Z,-0.65
2022-12-14T23:06:01.920Z,-0.64
2022-12-14T23:08:28.763Z,-0.64
2022-12-14T23:11:13.958Z,-0.63
2022-12-14T23:13:58.777Z,-0.70
2022-12-14T23:16:43.747Z,-0.69
2022-12-14T23:19:34.983Z,-0.68
2022-12-14T23:22:19.710Z,-0.69
2022-12-14T23:25:04.681Z,-0.70
2022-12-14T23:27:49.599Z,-0.65
2022-12-14T23:30:34.683Z,-0.60
2022-12-14T23:33:20.121Z,-0.57
2022-12-14T23:36:04.959Z,-0.52
2022-12-14T23:38:49.878Z,-0.52
2022-12-14T23:41:34.700Z,-0.48
2022-12-14T23:44:19.794Z,-0.51
2022-12-14T23:47:04.604Z,-0.49
2022-12-14T23:49:49.549Z,-0.50
2022-12-14T23:52:34.384Z,-0.55
2022-12-14T23:55:19.447Z,-0.51
2022-12-14T23:58:04.439Z,-0.55
